Time;durP1;ratioP1;P1;durP2;ratioP2;P2;SDS_P1;SDS_P2;PMS_P1;PMS_P2;Temp;Humidity;BMP_temperature;BMP_pressure;BME280_temperature;BME280_humidity;BME280_pressure;Samples;Min_cycle;Max_cycle;Signal;HPM_P1;HPM_P2
2022/04/28 00:01:03;;;;;;;17.35;15.65;;;3.70;99.90;;;;;;5052248;28;20444;-89
2022/04/28 00:03:29;;;;;;;17.85;15.75;;;3.70;99.90;;;;;;5044633;28;20112;-88
2022/04/28 00:05:57;;;;;;;18.77;16.67;;;3.80;99.90;;;;;;5052186;28;20028;-88
2022/04/28 00:08:23;;;;;;;22.55;19.65;;;3.80;99.90;;;;;;5051744;28;20041;-87
2022/04/28 00:10:49;;;;;;;20.42;18.33;;;3.90;99.90;;;;;;5040741;28;20026;-88
2022/04/28 00:13:16;;;;;;;18.60;16.60;;;4.00;99.90;;;;;;5040341;28;20025;-88
2022/04/28 00:15:41;;;;;;;23.25;17.88;;;4.00;99.90;;;;;;5030975;28;20052;-88
2022/04/28 00:18:07;;;;;;;21.70;17.98;;;4.00;99.90;;;;;;5049021;28;20048;-88
2022/04/28 00:20:32;;;;;;;22.33;17.83;;;4.10;99.90;;;;;;5034358;28;20092;-88
2022/04/28 00:22:58;;;;;;;18.15;16.42;;;4.10;99.90;;;;;;5051374;28;20017;-88
2022/04/28 00:25:24;;;;;;;17.15;15.45;;;4.10;99.90;;;;;;5051678;28;20032;-88
2022/04/28 00:27:51;;;;;;;16.67;14.98;;;4.00;99.90;;;;;;5031523;28;20029;-89
2022/04/28 00:30:16;;;;;;;14.75;13.50;;;4.00;99.90;;;;;;5033655;28;20472;-88
2022/04/28 00:32:42;;;;;;;106.72;14.82;;;3.90;99.90;;;;;;5034097;28;20028;-88
2022/04/28 00:35:08;;;;;;;14.60;10.55;;;3.90;99.90;;;;;;5033638;28;20040;-88
2022/04/28 00:37:34;;;;;;;10.98;9.98;;;3.70;99.90;;;;;;5055683;28;20028;-87
2022/04/28 00:40:01;;;;;;;8.27;7.57;;;3.60;99.90;;;;;;5054264;28;20059;-88
2022/04/28 00:42:27;;;;;;;97.03;8.48;;;3.60;99.90;;;;;;5063492;28;20025;-88
2022/04/28 00:44:53;;;;;;;117.72;11.13;;;3.50;99.90;;;;;;5033801;28;20033;-89
2022/04/28 00:47:18;;;;;;;35.30;12.07;;;3.40;99.90;;;;;;5050701;28;20533;-88
2022/04/28 00:52:30;;;;;;;11.70;10.70;;;3.30;99.90;;;;;;5051270;28;20032;-87
2022/04/28 00:54:57;;;;;;;13.95;12.60;;;3.20;99.90;;;;;;5033198;28;20108;-88
2022/04/28 00:57:24;;;;;;;16.52;14.95;;;3.20;99.90;;;;;;5033655;28;20033;-88
2022/04/28 00:59:50;;;;;;;18.23;16.30;;;3.20;99.90;;;;;;5033738;28;20024;-88
2022/04/28 01:02:20;;;;;;;42.97;28.38;;;3.30;99.90;;;;;;5033059;28;20029;-87
2022/04/28 01:04:47;;;;;;;16.17;14.65;;;3.40;99.90;;;;;;5050272;28;20060;-88
2022/04/28 01:07:13;;;;;;;19.20;15.90;;;3.40;99.90;;;;;;5032971;28;20496;-88
2022/04/28 01:09:41;;;;;;;14.88;13.25;;;3.40;99.90;;;;;;5033398;28;20029;-87
2022/04/28 01:12:14;;;;;;;14.73;13.32;;;3.40;99.90;;;;;;5033127;28;20024;-88
2022/04/28 01:14:44;;;;;;;16.67;14.90;;;3.40;99.90;;;;;;5037638;28;20036;-87
2022/04/28 01:17:11;;;;;;;19.38;16.00;;;3.30;99.90;;;;;;5050829;28;20037;-89
2022/04/28 01:19:36;;;;;;;22.70;17.95;;;3.40;99.90;;;;;;5050325;28;20027;-88
2022/04/28 01:22:04;;;;;;;20.58;17.38;;;3.40;99.90;;;;;;5032283;28;20431;-88
2022/04/28 01:24:31;;;;;;;17.90;16.05;;;3.40;99.90;;;;;;5043540;28;20032;-89
2022/04/28 01:26:59;;;;;;;32.05;13.55;;;3.40;99.90;;;;;;5033367;28;20041;-86
2022/04/28 01:29:25;;;;;;;14.07;9.02;;;3.40;99.90;;;;;;5033648;28;20056;-88
2022/04/28 01:31:50;;;;;;;38.78;11.95;;;3.30;99.90;;;;;;5050792;28;20060;-89
2022/04/28 01:34:16;;;;;;;149.40;13.52;;;3.20;99.90;;;;;;5052991;28;20044;-88
2022/04/28 01:36:43;;;;;;;156.40;15.77;;;3.10;99.90;;;;;;5027842;28;20034;-88
2022/04/28 01:39:09;;;;;;;143.15;12.65;;;3.10;99.90;;;;;;5046332;28;20079;-88
2022/04/28 01:41:36;;;;;;;225.07;15.60;;;3.00;99.90;;;;;;5051442;28;20024;-88
2022/04/28 01:44:02;;;;;;;208.60;16.98;;;2.90;99.90;;;;;;5050660;28;20036;-88
2022/04/28 01:46:28;;;;;;;548.15;28.05;;;2.90;99.90;;;;;;5050716;28;20690;-89
2022/04/28 01:48:54;;;;;;;402.38;20.23;;;2.90;99.90;;;;;;5032801;28;20025;-88
2022/04/28 01:56:48;;;;;;;224.57;17.83;;;2.70;99.90;;;;;;5051329;28;20039;-89
2022/04/28 01:59:14;;;;;;;471.25;24.00;;;2.70;99.90;;;;;;5050609;28;20112;-88
2022/04/28 02:01:39;;;;;;;340.27;21.55;;;2.70;99.90;;;;;;5050430;28;20447;-88
2022/04/28 02:04:05;;;;;;;201.43;19.23;;;2.70;99.90;;;;;;5030906;28;20036;-88
2022/04/28 02:06:30;;;;;;;92.45;14.88;;;2.60;99.90;;;;;;5050345;28;20651;-88
2022/04/28 02:08:56;;;;;;;71.40;13.50;;;2.60;99.90;;;;;;5047386;28;20040;-88
2022/04/28 02:11:22;;;;;;;96.55;14.05;;;2.60;99.90;;;;;;5036025;28;20402;-88
2022/04/28 02:13:47;;;;;;;25.67;10.30;;;2.60;99.90;;;;;;5031265;28;20034;-88
2022/04/28 02:16:13;;;;;;;60.60;11.82;;;2.50;99.90;;;;;;5031970;28;20484;-88
2022/04/28 02:18:39;;;;;;;168.68;15.18;;;2.50;99.90;;;;;;5054174;28;20029;-88
2022/04/28 02:21:04;;;;;;;146.27;16.25;;;2.40;99.90;;;;;;5036013;28;20025;-89
2022/04/28 02:23:30;;;;;;;48.05;14.88;;;2.40;99.90;;;;;;5054528;28;20392;-88
2022/04/28 02:25:56;;;;;;;38.50;14.85;;;2.40;99.90;;;;;;5038276;28;20033;-89
2022/04/28 02:28:21;;;;;;;16.33;14.60;;;2.50;99.90;;;;;;5053619;28;20094;-89
2022/04/28 02:30:47;;;;;;;26.67;15.60;;;2.40;99.90;;;;;;5035705;28;20033;-89
2022/04/28 02:33:13;;;;;;;17.58;15.85;;;2.40;99.90;;;;;;5035982;28;20108;-89
2022/04/28 02:35:39;;;;;;;17.35;15.18;;;2.40;99.90;;;;;;5033278;28;20052;-89
2022/04/28 02:38:05;;;;;;;27.05;13.95;;;2.40;99.90;;;;;;5049546;28;20041;-88
2022/04/28 02:40:30;;;;;;;21.30;13.82;;;2.40;99.90;;;;;;5054644;28;20033;-89
2022/04/28 02:42:56;;;;;;;77.70;14.50;;;2.40;99.90;;;;;;5053900;28;20090;-88
2022/04/28 02:45:23;;;;;;;140.05;15.68;;;2.30;99.90;;;;;;5053681;28;20079;-88
2022/04/28 02:47:48;;;;;;;187.75;16.48;;;2.30;99.90;;;;;;5037395;28;20020;-89
2022/04/28 02:50:14;;;;;;;147.60;14.60;;;2.30;99.90;;;;;;5038736;28;20548;-88
2022/04/28 02:52:40;;;;;;;145.48;14.10;;;2.20;99.90;;;;;;5071882;28;20771;-88
2022/04/28 02:55:07;;;;;;;216.10;17.80;;;2.10;99.90;;;;;;5053207;28;20112;-86
2022/04/28 02:57:33;;;;;;;203.23;17.02;;;2.10;99.90;;;;;;5035786;28;20439;-88
2022/04/28 02:59:59;;;;;;;231.20;17.33;;;2.10;99.90;;;;;;5053519;28;20109;-89
2022/04/28 03:02:24;;;;;;;285.15;18.35;;;2.00;99.90;;;;;;5053278;28;20025;-88
2022/04/28 03:04:50;;;;;;;194.93;16.33;;;2.00;99.90;;;;;;5035624;28;20119;-89
2022/04/28 03:12:44;;;;;;;27.00;19.08;;;1.80;99.90;;;;;;5064113;28;20044;-89
2022/04/28 03:15:11;;;;;;;24.30;19.63;;;1.80;99.90;;;;;;5064169;28;20029;-89
2022/04/28 03:17:37;;;;;;;30.13;21.20;;;1.90;99.90;;;;;;5063675;28;20021;-89
2022/04/28 03:20:04;;;;;;;37.33;23.00;;;2.00;99.90;;;;;;5061436;28;20033;-89
2022/04/28 03:22:30;;;;;;;268.85;33.50;;;2.10;99.90;;;;;;5061423;28;20102;-89
2022/04/28 03:24:56;;;;;;;30.65;18.45;;;2.10;99.90;;;;;;5042597;28;20021;-89
2022/04/28 03:27:21;;;;;;;29.05;19.20;;;2.20;99.90;;;;;;5053216;28;20040;-88
2022/04/28 03:29:47;;;;;;;694.30;43.83;;;2.20;99.90;;;;;;5053644;28;20025;-88
2022/04/28 03:32:13;;;;;;;741.67;39.53;;;2.20;99.90;;;;;;5052908;28;20049;-88
2022/04/28 03:34:38;;;;;;;497.50;27.40;;;2.00;99.90;;;;;;5035038;28;20112;-89
2022/04/28 03:37:04;;;;;;;501.67;31.85;;;1.90;99.90;;;;;;5050324;28;20072;-88
2022/04/28 03:39:30;;;;;;;277.95;18.90;;;1.80;99.90;;;;;;5052506;28;20215;-88
2022/04/28 03:41:56;;;;;;;281.27;19.52;;;1.70;99.90;;;;;;5035216;28;20029;-89
2022/04/28 03:44:21;;;;;;;443.80;27.77;;;1.60;99.90;;;;;;5052180;28;20025;-88
2022/04/28 03:46:47;;;;;;;405.98;26.58;;;1.50;99.90;;;;;;5034168;28;20040;-88
2022/04/28 03:49:13;;;;;;;161.73;18.42;;;1.50;99.90;;;;;;5034478;28;20021;-88
2022/04/28 03:51:39;;;;;;;40.95;14.90;;;1.50;99.90;;;;;;5050844;28;20028;-89
2022/04/28 03:54:05;;;;;;;73.47;17.10;;;1.50;99.90;;;;;;5048945;28;20181;-88
2022/04/28 03:56:33;;;;;;;40.13;15.73;;;1.50;99.90;;;;;;5034769;28;20029;-89
2022/04/28 03:59:00;;;;;;;25.10;14.93;;;1.50;99.90;;;;;;5034446;28;20404;-87
2022/04/28 04:01:26;;;;;;;18.33;15.32;;;1.50;99.90;;;;;;5050649;28;20116;-87
2022/04/28 04:03:52;;;;;;;19.90;15.82;;;1.50;99.90;;;;;;5034075;28;20064;-89
2022/04/28 04:06:18;;;;;;;17.70;15.88;;;1.50;99.90;;;;;;5033816;28;20408;-88
2022/04/28 04:08:43;;;;;;;14.95;13.45;;;1.50;99.90;;;;;;5034490;28;20033;-89
2022/04/28 04:11:09;;;;;;;16.35;14.75;;;1.50;99.90;;;;;;5034146;28;20124;-88
2022/04/28 04:13:34;;;;;;;25.25;19.05;;;1.60;99.90;;;;;;5033952;28;20029;-89
2022/04/28 04:16:00;;;;;;;31.58;20.85;;;1.60;99.90;;;;;;5051661;28;20025;-88
2022/04/28 04:18:26;;;;;;;33.13;20.90;;;1.70;99.90;;;;;;5051774;28;20032;-88
2022/04/28 04:20:51;;;;;;;29.80;20.27;;;1.80;99.90;;;;;;5051493;28;20025;-88
2022/04/28 04:23:17;;;;;;;28.33;18.45;;;1.90;99.90;;;;;;5051744;28;20074;-87
2022/04/28 04:25:43;;;;;;;27.23;18.52;;;2.00;99.90;;;;;;5035365;28;20040;-89
2022/04/28 04:28:09;;;;;;;26.55;20.13;;;2.00;99.90;;;;;;5045749;28;20499;-89
2022/04/28 04:33:20;;;;;;;25.40;18.45;;;2.20;99.90;;;;;;5049946;28;20032;-88
2022/04/28 04:35:45;;;;;;;25.88;17.67;;;2.20;99.90;;;;;;5051765;28;20021;-88
2022/04/28 04:38:11;;;;;;;17.30;15.40;;;2.30;99.90;;;;;;5051490;28;20033;-90
2022/04/28 04:40:36;;;;;;;16.08;14.45;;;2.30;99.90;;;;;;5033740;28;20499;-89
2022/04/28 04:43:03;;;;;;;15.48;13.98;;;2.30;99.90;;;;;;5051777;28;20103;-88
2022/04/28 04:45:29;;;;;;;15.35;13.63;;;2.40;99.90;;;;;;5051279;28;20033;-88
2022/04/28 04:47:54;;;;;;;14.43;13.00;;;2.40;99.90;;;;;;5051822;28;20028;-87
2022/04/28 04:50:20;;;;;;;14.18;12.98;;;2.40;99.90;;;;;;5051485;28;20115;-88
2022/04/28 04:52:45;;;;;;;13.70;12.27;;;2.40;99.90;;;;;;5051228;28;20463;-88
2022/04/28 04:55:11;;;;;;;13.00;11.73;;;2.50;99.90;;;;;;5053404;28;20071;-89
2022/04/28 04:57:37;;;;;;;11.75;9.93;;;2.50;99.90;;;;;;5052510;28;20412;-88
2022/04/28 05:00:04;;;;;;;122.20;16.55;;;2.60;99.90;;;;;;5054736;28;20040;-88
2022/04/28 05:02:30;;;;;;;32.33;9.60;;;2.80;99.90;;;;;;5034191;28;20071;-88
2022/04/28 05:04:55;;;;;;;8.65;7.22;;;3.20;99.90;;;;;;5056070;28;20533;-88
2022/04/28 05:07:21;;;;;;;7.65;6.93;;;3.80;99.90;;;;;;5033015;28;20037;-88
2022/04/28 05:09:47;;;;;;;6.20;5.57;;;4.30;99.90;;;;;;5047637;28;20366;-88
2022/04/28 05:12:12;;;;;;;5.00;4.50;;;5.10;99.90;;;;;;5055385;28;20037;-88
2022/04/28 05:14:38;;;;;;;5.38;4.88;;;5.70;99.90;;;;;;5050481;28;20125;-88
2022/04/28 05:17:04;;;;;;;4.65;4.25;;;6.20;99.90;;;;;;5020631;28;20026;-89
2022/04/28 05:19:29;;;;;;;6.35;4.57;;;6.50;99.90;;;;;;5023256;28;20021;-87
2022/04/28 05:21:55;;;;;;;5.32;4.20;;;7.00;99.90;;;;;;5033718;28;20397;-88
2022/04/28 05:24:21;;;;;;;4.57;3.85;;;7.30;99.90;;;;;;5051402;28;20583;-89
2022/04/28 05:26:47;;;;;;;4.88;4.40;;;7.50;99.90;;;;;;5031918;28;20044;-87
2022/04/28 05:29:13;;;;;;;4.47;4.07;;;8.10;99.90;;;;;;5051228;28;20568;-88
2022/04/28 05:31:38;;;;;;;5.15;4.75;;;8.90;99.90;;;;;;5054229;28;20045;-88
2022/04/28 05:34:04;;;;;;;3.78;3.45;;;9.50;99.90;;;;;;5033047;28;20083;-89
2022/04/28 05:36:30;;;;;;;4.13;3.72;;;10.30;99.90;;;;;;5032985;28;20032;-89
2022/04/28 05:38:59;;;;;;;4.05;3.65;;;10.90;99.90;;;;;;5036436;28;20395;-89
2022/04/28 05:41:26;;;;;;;5.47;3.58;;;10.90;99.90;;;;;;5051107;28;20032;-89
2022/04/28 05:46:37;;;;;;;4.15;3.58;;;12.00;99.90;;;;;;5052197;28;20064;-89
2022/04/28 05:49:05;;;;;;;4.65;4.25;;;12.90;99.90;;;;;;5037355;28;20041;-89
2022/04/28 05:51:31;;;;;;;4.22;3.85;;;13.40;99.90;;;;;;5054824;28;20402;-89
2022/04/28 05:53:57;;;;;;;4.57;4.28;;;13.70;99.90;;;;;;5055927;28;20107;-89
2022/04/28 05:56:23;;;;;;;4.55;4.10;;;14.00;99.90;;;;;;5036547;28;20108;-89
2022/04/28 05:58:48;;;;;;;5.05;4.65;;;14.20;99.90;;;;;;5054685;28;20113;-89
2022/04/28 06:01:14;;;;;;;4.25;3.95;;;14.10;99.90;;;;;;5036177;28;20054;-89
2022/04/28 06:03:41;;;;;;;4.28;3.97;;;14.80;99.90;;;;;;5037172;28;20566;-89
2022/04/28 06:06:09;;;;;;;4.47;4.18;;;14.40;99.90;;;;;;5036089;28;20044;-90
2022/04/28 06:08:35;;;;;;;5.25;4.80;;;15.30;99.90;;;;;;5054845;28;20082;-89
2022/04/28 06:11:01;;;;;;;5.75;5.13;;;15.10;96.10;;;;;;5036547;28;20057;-88
2022/04/28 06:13:27;;;;;;;5.28;4.88;;;15.30;95.90;;;;;;5054371;28;20051;-89
2022/04/28 06:15:53;;;;;;;8.50;4.82;;;15.90;92.10;;;;;;5053868;28;20055;-90
2022/04/28 06:18:19;;;;;;;5.90;5.28;;;16.20;84.60;;;;;;5054340;28;20029;-90
2022/04/28 06:20:45;;;;;;;6.10;5.50;;;16.50;88.30;;;;;;5054925;28;20048;-89
2022/04/28 06:23:11;;;;;;;5.47;5.07;;;16.60;90.60;;;;;;5053983;28;20025;-89
2022/04/28 06:25:37;;;;;;;5.80;5.40;;;16.70;90.80;;;;;;5050757;28;20044;-89
2022/04/28 06:28:04;;;;;;;6.30;5.80;;;17.50;80.80;;;;;;5044841;28;20025;-88
2022/04/28 06:30:30;;;;;;;5.93;5.32;;;18.10;72.20;;;;;;5043135;28;20045;-89
2022/04/28 06:32:55;;;;;;;8.00;5.50;;;18.50;71.20;;;;;;5054615;28;20021;-90
2022/04/28 06:35:21;;;;;;;5.57;5.07;;;19.10;69.70;;;;;;5035740;28;20543;-89
2022/04/28 06:37:46;;;;;;;6.18;5.68;;;19.50;67.40;;;;;;5053800;28;20033;-89
2022/04/28 06:40:12;;;;;;;5.57;5.18;;;20.00;63.00;;;;;;5051068;28;20029;-90
2022/04/28 06:42:43;;;;;;;6.30;5.50;;;20.60;59.50;;;;;;5052847;28;20028;-88
2022/04/28 06:45:10;;;;;;;5.50;5.05;;;21.40;56.80;;;;;;5052160;28;20025;-89
2022/04/28 06:47:35;;;;;;;5.38;4.97;;;21.50;54.90;;;;;;5054074;28;20553;-89
2022/04/28 06:50:01;;;;;;;7.15;5.82;;;21.60;56.20;;;;;;5035686;28;20025;-89
2022/04/28 06:52:27;;;;;;;5.63;5.22;;;21.90;53.60;;;;;;5040748;28;20033;-90
2022/04/28 06:54:52;;;;;;;5.28;4.88;;;21.70;56.40;;;;;;5035493;28;20025;-91
2022/04/28 06:57:19;;;;;;;5.50;5.18;;;22.00;54.80;;;;;;5035589;28;20025;-90
2022/04/28 06:59:44;;;;;;;5.00;4.60;;;22.40;54.70;;;;;;5036025;28;20048;-90
2022/04/28 07:02:10;;;;;;;6.03;5.53;;;22.60;52.50;;;;;;5053206;28;20488;-88
2022/04/28 07:04:36;;;;;;;6.00;5.53;;;22.80;51.80;;;;;;5053481;28;20041;-89
2022/04/28 07:07:02;;;;;;;5.82;5.32;;;23.20;53.10;;;;;;5052823;28;20043;-89
2022/04/28 07:09:27;;;;;;;5.80;5.40;;;23.30;52.40;;;;;;5053762;28;20029;-90
2022/04/28 07:11:53;;;;;;;5.35;4.95;;;23.50;51.10;;;;;;5036467;28;20089;-89
2022/04/28 07:14:19;;;;;;;5.90;5.30;;;24.10;51.60;;;;;;5036279;28;20029;-90
2022/04/28 07:16:45;;;;;;;5.38;4.97;;;23.90;51.70;;;;;;5035221;28;20162;-89
2022/04/28 07:19:11;;;;;;;6.30;5.70;;;23.90;49.90;;;;;;5052616;28;20053;-90
2022/04/28 07:21:36;;;;;;;6.05;5.55;;;24.70;48.90;;;;;;5035170;28;20120;-89
2022/04/28 07:24:02;;;;;;;6.13;5.72;;;24.60;48.80;;;;;;5053343;28;20499;-89
2022/04/28 07:26:28;;;;;;;5.65;5.15;;;24.70;49.20;;;;;;5052891;28;20025;-89
2022/04/28 07:28:54;;;;;;;6.75;6.25;;;24.30;49.20;;;;;;5060792;28;20112;-89
2022/04/28 07:31:20;;;;;;;6.50;5.55;;;24.20;47.90;;;;;;5038353;28;20116;-88
2022/04/28 07:33:46;;;;;;;6.13;5.63;;;24.40;49.10;;;;;;5052697;28;20029;-89
2022/04/28 07:36:15;;;;;;;5.78;5.30;;;24.80;48.50;;;;;;5052773;28;20024;-90
2022/04/28 07:38:44;;;;;;;5.43;5.03;;;25.30;47.90;;;;;;5053478;28;20040;-89
2022/04/28 07:41:10;;;;;;;6.03;5.25;;;26.00;45.70;;;;;;5052418;28;20033;-89
2022/04/28 07:43:36;;;;;;;5.38;4.88;;;26.00;47.70;;;;;;5046176;28;20040;-89
2022/04/28 07:46:01;;;;;;;7.10;5.38;;;26.10;45.90;;;;;;5034238;28;20552;-90
2022/04/28 07:48:27;;;;;;;6.40;5.03;;;26.70;46.60;;;;;;5052756;28;20067;-90
2022/04/28 07:50:52;;;;;;;6.43;5.22;;;26.70;46.50;;;;;;5051433;28;20021;-88
2022/04/28 07:53:18;;;;;;;5.43;4.93;;;26.90;46.00;;;;;;5045930;28;20033;-90
2022/04/28 07:55:44;;;;;;;5.15;4.75;;;26.90;44.70;;;;;;5052231;28;20079;-90
2022/04/28 07:58:09;;;;;;;5.28;4.88;;;27.90;44.60;;;;;;5040404;28;20408;-90
2022/04/28 08:00:35;;;;;;;5.28;4.85;;;28.00;43.30;;;;;;5051979;28;20025;-90
2022/04/28 08:03:01;;;;;;;5.70;5.30;;;27.10;42.50;;;;;;5052741;28;20025;-89
2022/04/28 08:05:26;;;;;;;4.97;4.57;;;25.80;46.70;;;;;;5051315;28;20403;-89
2022/04/28 08:07:52;;;;;;;5.63;5.13;;;24.40;48.40;;;;;;5047741;28;20026;-89
2022/04/28 08:10:18;;;;;;;9.18;5.93;;;23.60;50.60;;;;;;5034452;28;20029;-89
2022/04/28 08:12:43;;;;;;;7.85;6.00;;;22.70;51.10;;;;;;5051701;28;20511;-89
2022/04/28 08:15:10;;;;;;;5.25;4.95;;;22.60;53.20;;;;;;5051619;28;20033;-91
2022/04/28 08:17:36;;;;;;;8.27;6.00;;;22.50;55.60;;;;;;5034654;28;20029;-90
2022/04/28 08:20:02;;;;;;;5.82;5.32;;;22.30;56.50;;;;;;5033757;28;20029;-89
2022/04/28 08:22:27;;;;;;;6.80;5.97;;;21.70;57.10;;;;;;5051820;28;20032;-90
2022/04/28 08:24:53;;;;;;;6.30;5.80;;;21.50;57.60;;;;;;5051804;28;20033;-90
2022/04/28 08:27:24;;;;;;;6.60;6.10;;;21.00;58.10;;;;;;5033668;28;20155;-89
2022/04/28 08:29:50;;;;;;;6.25;5.65;;;20.80;58.90;;;;;;5050983;28;20013;-90
2022/04/28 08:32:16;;;;;;;6.35;5.88;;;21.10;59.90;;;;;;5040411;28;20063;-89
2022/04/28 08:34:42;;;;;;;6.05;5.55;;;21.20;57.60;;;;;;5051776;28;20496;-89
2022/04/28 08:37:08;;;;;;;6.40;5.90;;;21.10;58.10;;;;;;5043342;28;20033;-90
2022/04/28 08:39:34;;;;;;;7.03;5.25;;;21.00;58.30;;;;;;5051638;28;20432;-89
2022/04/28 08:42:00;;;;;;;5.82;5.38;;;21.20;59.20;;;;;;5051126;28;20056;-90
2022/04/28 08:44:27;;;;;;;6.35;5.85;;;22.10;58.90;;;;;;5050600;28;20029;-90
2022/04/28 08:46:56;;;;;;;5.93;5.47;;;23.20;55.40;;;;;;5051227;28;20033;-90
2022/04/28 08:49:32;;;;;;;5.15;4.65;;;24.60;52.20;;;;;;5050699;28;20531;-90
2022/04/28 08:51:59;;;;;;;5.15;4.75;;;25.40;49.40;;;;;;5037281;28;20033;-88
2022/04/28 08:54:29;;;;;;;5.25;4.43;;;25.80;49.40;;;;;;5050868;28;20103;-91
2022/04/28 08:56:57;;;;;;;5.50;5.07;;;27.00;49.10;;;;;;5050521;28;20083;-90
2022/04/28 08:59:24;;;;;;;8.95;5.57;;;27.60;43.10;;;;;;5049958;28;20029;-89
2022/04/28 09:01:50;;;;;;;6.50;5.40;;;27.80;44.00;;;;;;5031492;28;20025;-89
2022/04/28 09:04:22;;;;;;;4.93;4.45;;;28.60;41.90;;;;;;5050344;28;20029;-88
2022/04/28 09:06:51;;;;;;;5.15;4.75;;;29.20;42.90;;;;;;5033104;28;20037;-88
2022/04/28 09:09:18;;;;;;;5.20;4.72;;;29.10;42.10;;;;;;5047795;28;20021;-90
2022/04/28 09:11:45;;;;;;;6.47;5.75;;;29.00;40.20;;;;;;5033633;28;20067;-88
2022/04/28 09:14:14;;;;;;;4.93;4.53;;;29.30;35.80;;;;;;5051236;28;20040;-89
2022/04/28 09:16:45;;;;;;;4.50;4.15;;;30.00;36.70;;;;;;5034504;28;20033;-90
2022/04/28 09:19:23;;;;;;;6.47;5.90;;;30.30;39.20;;;;;;5048839;28;20564;-89
2022/04/28 09:21:54;;;;;;;4.50;4.20;;;31.10;37.30;;;;;;5054088;28;20029;-89
2022/04/28 09:24:21;;;;;;;4.38;3.90;;;31.60;34.30;;;;;;5037170;28;20013;-90
2022/04/28 09:26:48;;;;;;;5.00;4.60;;;31.20;31.80;;;;;;5035467;28;20021;-89
2022/04/28 09:29:15;;;;;;;5.95;4.22;;;30.90;36.10;;;;;;5054696;28;20029;-90
2022/04/28 09:31:44;;;;;;;4.90;4.50;;;30.70;36.70;;;;;;5054971;28;20057;-91
2022/04/28 09:34:16;;;;;;;4.50;4.10;;;30.60;33.20;;;;;;5053599;28;20037;-89
2022/04/28 09:36:45;;;;;;;7.95;5.10;;;30.20;35.20;;;;;;5037331;28;20045;-89
2022/04/28 09:42:29;;;;;;;4.32;4.03;;;30.70;33.10;;;;;;5054327;28;20116;-90
2022/04/28 09:44:57;;;;;;;4.20;3.90;;;30.30;33.10;;;;;;5052575;28;20361;-90
2022/04/28 09:47:24;;;;;;;3.95;3.65;;;30.00;34.80;;;;;;5054632;28;20112;-88
2022/04/28 09:49:55;;;;;;;5.60;3.63;;;30.30;34.40;;;;;;5036558;28;20036;-90
2022/04/28 09:52:24;;;;;;;4.20;3.65;;;30.30;32.20;;;;;;5054287;28;20040;-89
2022/04/28 09:54:56;;;;;;;4.10;3.70;;;29.70;34.60;;;;;;5036646;28;20079;-89
2022/04/28 09:57:22;;;;;;;6.68;3.53;;;29.20;35.00;;;;;;5033123;28;20036;-87
2022/04/28 09:59:49;;;;;;;3.80;3.42;;;29.00;35.30;;;;;;5055074;28;20017;-88
2022/04/28 10:02:20;;;;;;;3.83;2.95;;;28.70;34.00;;;;;;5039738;28;20063;-87
2022/04/28 10:04:47;;;;;;;3.75;3.35;;;29.10;32.90;;;;;;5036433;28;20595;-87
2022/04/28 10:07:13;;;;;;;4.68;4.28;;;29.00;31.80;;;;;;5056667;28;20115;-87
2022/04/28 10:09:45;;;;;;;4.05;3.75;;;28.80;32.20;;;;;;5059736;28;20690;-87
2022/04/28 10:12:12;;;;;;;5.15;4.03;;;28.60;33.80;;;;;;5046800;28;20078;-87
2022/04/28 10:14:41;;;;;;;4.45;4.15;;;28.00;34.80;;;;;;5054465;28;20055;-87
2022/04/28 10:17:35;;;;;;;5.90;5.32;;;26.90;34.80;;;;;;5053921;28;20025;-87
2022/04/28 10:20:09;;;;;;;5.43;4.93;;;25.50;36.20;;;;;;5033442;28;20025;-88
2022/04/28 10:22:36;;;;;;;4.75;4.45;;;24.00;38.40;;;;;;5034744;28;20021;-87
2022/04/28 10:33:24;;;;;;;7.13;5.18;;;23.10;43.20;;;;;;5054154;28;20573;-87
2022/04/28 10:35:50;;;;;;;5.60;4.25;;;22.90;41.90;;;;;;5054321;28;20028;-87
2022/04/28 10:38:31;;;;;;;4.70;4.30;;;22.90;45.20;;;;;;5036083;28;20029;-88
2022/04/28 10:40:57;;;;;;;4.20;3.88;;;22.70;46.00;;;;;;5046731;28;20082;-87
2022/04/28 10:43:32;;;;;;;3.88;3.58;;;22.90;45.40;;;;;;5053754;28;20792;-87
2022/04/28 10:45:59;;;;;;;4.38;3.97;;;23.30;45.00;;;;;;5053953;28;20079;-87
2022/04/28 10:48:27;;;;;;;4.82;4.43;;;23.50;44.90;;;;;;5033669;28;20024;-88
2022/04/28 10:51:17;;;;;;;4.28;3.88;;;23.40;43.80;;;;;;5054164;28;20025;-88
2022/04/28 10:54:07;;;;;;;5.13;4.20;;;23.50;45.10;;;;;;5037191;28;20036;-87
2022/04/28 10:56:42;;;;;;;4.77;4.37;;;23.60;44.60;;;;;;5032472;28;20033;-88
2022/04/28 10:59:34;;;;;;;5.20;4.30;;;23.70;42.70;;;;;;5031561;28;20071;-87
2022/04/28 11:02:15;;;;;;;4.53;4.13;;;24.30;47.60;;;;;;5035415;28;20071;-89
2022/04/28 11:04:48;;;;;;;7.18;4.18;;;25.10;41.30;;;;;;5033689;28;20432;-88
2022/04/28 11:07:20;;;;;;;6.72;4.28;;;24.80;40.20;;;;;;5051852;28;20137;-88
2022/04/28 11:10:07;;;;;;;5.60;5.10;;;24.80;38.70;;;;;;5035130;28;20021;-87
2022/04/28 11:12:37;;;;;;;5.25;4.75;;;24.10;38.90;;;;;;5050529;28;20021;-88
2022/04/28 11:15:10;;;;;;;5.00;4.50;;;23.70;41.20;;;;;;5053709;28;20056;-89
2022/04/28 11:17:37;;;;;;;5.50;4.05;;;23.40;43.90;;;;;;5035115;28;20056;-89
2022/04/28 11:20:11;;;;;;;5.15;4.30;;;23.20;43.90;;;;;;5035636;28;20116;-89
2022/04/28 11:22:44;;;;;;;4.47;4.10;;;23.00;43.60;;;;;;5052645;28;20075;-89
2022/04/28 11:25:12;;;;;;;3.63;3.33;;;23.20;41.10;;;;;;5034935;28;20658;-88
2022/04/28 11:27:39;;;;;;;3.95;3.63;;;23.20;46.00;;;;;;5034562;28;20078;-89
2022/04/28 11:30:05;;;;;;;8.43;4.60;;;23.90;45.00;;;;;;5054735;28;20032;-88
2022/04/28 11:32:31;;;;;;;4.43;3.95;;;24.30;39.30;;;;;;5053371;28;20028;-88
2022/04/28 11:34:58;;;;;;;4.53;4.13;;;24.10;40.40;;;;;;5051337;28;20040;-88
2022/04/28 11:37:26;;;;;;;4.03;3.58;;;24.10;40.50;;;;;;5051950;28;20044;-88
2022/04/28 11:39:57;;;;;;;4.78;4.20;;;23.70;39.80;;;;;;5051778;28;20033;-88
2022/04/28 11:42:26;;;;;;;5.30;4.05;;;23.40;40.20;;;;;;5052204;28;20017;-88
2022/04/28 11:44:56;;;;;;;4.18;3.47;;;23.30;41.50;;;;;;5052431;28;20021;-89
2022/04/28 11:47:26;;;;;;;3.72;3.42;;;23.30;41.00;;;;;;5029916;28;20075;-89
2022/04/28 11:49:59;;;;;;;4.00;3.60;;;22.70;39.90;;;;;;5038532;28;20041;-90
2022/04/28 11:52:33;;;;;;;3.28;2.97;;;22.90;41.80;;;;;;5050428;28;20021;-87
2022/04/28 11:55:05;;;;;;;3.20;2.70;;;23.60;45.80;;;;;;5034350;28;20075;-87
2022/04/28 11:57:32;;;;;;;3.05;2.72;;;24.60;43.00;;;;;;5051733;28;20520;-88
2022/04/28 11:59:58;;;;;;;3.00;2.60;;;25.50;43.50;;;;;;5036671;28;20499;-86
2022/04/28 12:02:34;;;;;;;2.72;2.22;;;26.00;38.10;;;;;;5034079;28;20520;-61
2022/04/28 12:05:02;;;;;;;2.90;2.65;;;26.40;38.30;;;;;;4989444;28;20072;-62
2022/04/28 12:07:31;;;;;;;2.92;2.53;;;26.20;42.70;;;;;;4989778;28;20026;-61
2022/04/28 12:15:42;;;;;;;5.13;3.10;;;27.20;39.20;;;;;;4992801;28;20532;-61
2022/04/28 12:20:59;;;;;;;3.55;2.58;;;27.60;37.50;;;;;;4997497;28;20535;-62
2022/04/28 12:23:28;;;;;;;3.15;2.70;;;27.80;38.20;;;;;;4981413;28;20681;-62
2022/04/28 12:26:00;;;;;;;6.13;2.90;;;27.80;39.40;;;;;;4990011;28;20055;-62
2022/04/28 12:28:34;;;;;;;3.70;2.67;;;27.50;36.40;;;;;;4992407;28;20042;-62
2022/04/28 12:31:02;;;;;;;2.95;2.58;;;27.40;37.20;;;;;;4989927;28;20165;-61
2022/04/28 12:33:34;;;;;;;3.20;2.90;;;27.00;38.10;;;;;;4995912;28;20026;-62
2022/04/28 12:36:01;;;;;;;2.90;2.60;;;26.10;39.00;;;;;;4997419;28;20061;-61
2022/04/28 12:38:28;;;;;;;2.92;2.70;;;25.60;38.10;;;;;;5000057;28;20030;-62
2022/04/28 12:40:55;;;;;;;2.92;2.65;;;25.30;37.00;;;;;;4998363;28;20034;-62
2022/04/28 12:43:41;;;;;;;2.80;2.47;;;25.10;38.70;;;;;;4997427;28;20038;-61
2022/04/28 12:46:07;;;;;;;3.20;2.00;;;24.80;40.80;;;;;;5001114;28;20018;-62
2022/04/28 12:48:34;;;;;;;2.63;1.88;;;25.20;41.30;;;;;;4993750;28;20039;-62
2022/04/28 12:51:17;;;;;;;3.55;2.90;;;25.80;42.00;;;;;;4997390;28;20018;-62
2022/04/28 12:53:46;;;;;;;3.15;2.95;;;26.20;36.10;;;;;;4998208;28;20034;-62
2022/04/28 12:56:15;;;;;;;3.53;2.40;;;26.30;36.60;;;;;;4996500;28;20058;-62
2022/04/28 12:58:54;;;;;;;4.50;2.85;;;26.50;40.90;;;;;;4999583;28;20050;-62
2022/04/28 13:01:20;;;;;;;3.28;2.47;;;26.20;35.40;;;;;;4995132;28;20105;-61
2022/04/28 13:04:06;;;;;;;2.28;2.08;;;25.90;36.50;;;;;;4993688;28;20489;-62
2022/04/28 13:06:37;;;;;;;3.22;2.40;;;25.70;39.40;;;;;;4992869;28;20062;-62
2022/04/28 13:09:03;;;;;;;;;;;25.20;38.10;;;;;;4999782;28;20384;-62
2022/04/28 13:11:31;;;;;;;3.03;2.28;;;25.40;38.30;;;;;;5001501;28;19914;-62
2022/04/28 13:13:58;;;;;;;2.42;2.00;;;25.50;41.70;;;;;;4989970;28;20030;-61
2022/04/28 13:16:24;;;;;;;2.15;1.95;;;25.70;37.70;;;;;;4986341;28;20069;-62
2022/04/28 13:18:50;;;;;;;2.30;2.08;;;25.70;39.00;;;;;;4988440;28;20066;-62
2022/04/28 13:21:16;;;;;;;2.15;1.95;;;25.20;39.60;;;;;;4984485;28;20027;-61
2022/04/28 13:23:45;;;;;;;3.67;2.03;;;25.30;43.10;;;;;;4981297;28;20072;-62